Time;durP1;ratioP1;P1;durP2;ratioP2;P2;SDS_P1;SDS_P2;PMS_P1;PMS_P2;Temp;Humidity;BMP_temperature;BMP_pressure;BME280_temperature;BME280_humidity;BME280_pressure;Samples;Min_cycle;Max_cycle;Signal;HPM_P1;HPM_P2
2020/03/26 00:00:49;;;;;;;12.5;11.2;;;;;;;-0.51;69.60645;958.6355;;;;
2020/03/26 00:03:14;;;;;;;12;10.8;;;;;;;-0.53;69.61426;958.6264;;;;
2020/03/26 00:05:39;;;;;;;12.9;11.6;;;;;;;-0.49;69.57715;958.5945;;;;
2020/03/26 00:08:04;;;;;;;12.3;11;;;;;;;-0.4;68.76074;958.5683;;;;
2020/03/26 00:10:29;;;;;;;13;11.7;;;;;;;-0.64;69.56348;958.5735;;;;
2020/03/26 00:12:54;;;;;;;12.1;10.9;;;;;;;-0.75;70.19531;958.6083;;;;
2020/03/26 00:15:19;;;;;;;12.4;11.1;;;;;;;-0.73;70.18848;958.5545;;;;
2020/03/26 00:17:44;;;;;;;12.9;11.6;;;;;;;-0.56;69.47559;958.4735;;;;
2020/03/26 00:20:09;;;;;;;12.9;11.5;;;;;;;-0.61;69.27734;958.4442;;;;
2020/03/26 00:22:34;;;;;;;13.3;11.9;;;;;;;-0.77;70.1123;958.44;;;;
2020/03/26 00:24:59;;;;;;;12.9;11.5;;;;;;;-0.79;70.60156;958.3962;;;;
2020/03/26 00:27:30;;;;;;;13.9;11.6;;;;;;;-0.72;70.98438;958.4197;;;;
2020/03/26 00:29:59;;;;;;;12.9;11.5;;;;;;;-0.79;70.64648;958.4506;;;;
2020/03/26 00:32:14;;;;;;;14.9;12.1;;;;;;;-0.63;69.70898;958.3825;;;;
2020/03/26 00:34:39;;;;;;;13.6;12.2;;;;;;;-0.71;70.81836;958.3727;;;;
2020/03/26 00:37:08;;;;;;;13.2;11.6;;;;;;;-0.63;70.03711;958.3647;;;;
2020/03/26 00:39:30;;;;;;;14.1;11.8;;;;;;;-0.79;70.80469;958.2781;;;;
2020/03/26 00:41:55;;;;;;;13.2;11.8;;;;;;;-0.7;70.14844;958.1555;;;;
2020/03/26 00:44:20;;;;;;;13.7;12;;;;;;;-0.7;70.25879;958.1473;;;;
2020/03/26 00:46:45;;;;;;;13.9;12.5;;;;;;;-0.77;70.61719;958.1139;;;;
2020/03/26 00:49:10;;;;;;;14.3;12.2;;;;;;;-0.78;70.86328;958.1599;;;;
2020/03/26 00:51:35;;;;;;;13.8;12.3;;;;;;;-0.84;71.0752;958.1373;;;;
2020/03/26 00:54:00;;;;;;;13.6;12.2;;;;;;;-0.83;70.61914;958.0358;;;;
2020/03/26 00:56:25;;;;;;;14;11.7;;;;;;;-0.82;70.94531;958.0628;;;;
2020/03/26 00:58:50;;;;;;;13.7;12.3;;;;;;;-0.77;70.875;958.0561;;;;
2020/03/26 01:01:16;;;;;;;14.4;12.3;;;;;;;-0.75;70.83301;957.9634;;;;
2020/03/26 01:03:53;;;;;;;13.8;12.4;;;;;;;-0.87;71.23926;957.95;;;;
2020/03/26 01:06:19;;;;;;;14.6;12.8;;;;;;;-0.92;70.89355;957.9913;;;;
2020/03/26 01:08:44;;;;;;;13.8;12.3;;;;;;;-0.85;71.16406;957.9075;;;;
2020/03/26 01:11:09;;;;;;;13.9;12.4;;;;;;;-0.92;71.16309;957.9258;;;;
2020/03/26 01:13:34;;;;;;;14.3;12.7;;;;;;;-0.87;71.66504;957.8678;;;;
2020/03/26 01:15:59;;;;;;;14.5;12.6;;;;;;;-0.94;71.24902;957.7908;;;;
2020/03/26 01:18:24;;;;;;;13.9;12.4;;;;;;;-1;72.15723;957.736;;;;
2020/03/26 01:20:49;;;;;;;14.7;12.4;;;;;;;-0.97;71.97461;957.6845;;;;
2020/03/26 01:23:14;;;;;;;14.4;12.9;;;;;;;-1.11;72.49902;957.6197;;;;
2020/03/26 01:25:39;;;;;;;13.8;12.4;;;;;;;-1.08;72.18945;957.6806;;;;
2020/03/26 01:28:04;;;;;;;13.7;12.3;;;;;;;-1.18;72.51855;957.6646;;;;
2020/03/26 01:30:30;;;;;;;13.6;12.2;;;;;;;-1.11;72.46387;957.6232;;;;
2020/03/26 01:32:55;;;;;;;14.9;12.5;;;;;;;-1.11;72.37402;957.5701;;;;
2020/03/26 01:35:20;;;;;;;14.8;13.2;;;;;;;-1.04;71.93945;957.6191;;;;
2020/03/26 01:37:45;;;;;;;14.2;12.7;;;;;;;-1.08;72.41406;957.5659;;;;
2020/03/26 01:40:10;;;;;;;14.2;12.7;;;;;;;-1.08;72.01074;957.5818;;;;
2020/03/26 01:42:35;;;;;;;14.1;12.6;;;;;;;-1.03;72.21973;957.532;;;;
2020/03/26 01:45:01;;;;;;;14.9;12.7;;;;;;;-1.16;72.29785;957.4964;;;;
2020/03/26 01:47:26;;;;;;;14.5;11.9;;;;;;;-1.25;72.3623;957.5381;;;;
2020/03/26 01:49:51;;;;;;;14.1;12.5;;;;;;;-1.19;72.55176;957.4989;;;;
2020/03/26 01:52:16;;;;;;;15.1;12.7;;;;;;;-1.28;72.78125;957.5156;;;;
2020/03/26 01:54:41;;;;;;;15;12.4;;;;;;;-1.21;72.90527;957.5286;;;;
2020/03/26 01:57:07;;;;;;;15.1;13;;;;;;;-1.22;72.72461;957.5352;;;;
2020/03/26 01:59:32;;;;;;;13.8;12.4;;;;;;;-1.19;72.2832;957.5053;;;;
2020/03/26 02:01:57;;;;;;;14;12.5;;;;;;;-1.09;71.87305;957.5236;;;;
2020/03/26 02:04:22;;;;;;;13.3;12;;;;;;;-1.1;72.05273;957.4634;;;;
2020/03/26 02:06:47;;;;;;;13.3;12;;;;;;;-1.19;72.1377;957.5117;;;;
2020/03/26 02:09:12;;;;;;;15.5;12.8;;;;;;;-1.28;73.11719;957.435;;;;
2020/03/26 02:11:37;;;;;;;13.8;12.4;;;;;;;-1.2;72.31543;957.4169;;;;
2020/03/26 02:14:02;;;;;;;14.3;12.7;;;;;;;-1.29;73.16016;957.4731;;;;
2020/03/26 02:16:28;;;;;;;14;12.4;;;;;;;-1.2;72.95215;957.4586;;;;
2020/03/26 02:18:53;;;;;;;14.2;12.7;;;;;;;-1.29;72.91406;957.4252;;;;
2020/03/26 02:21:19;;;;;;;14.2;12.7;;;;;;;-1.23;72.48633;957.4264;;;;
2020/03/26 02:23:44;;;;;;;13.7;12.3;;;;;;;-1.29;72.75781;957.3744;;;;
2020/03/26 02:26:09;;;;;;;13.6;12.3;;;;;;;-1.27;73.50098;957.3859;;;;
2020/03/26 02:31:44;;;;;;;14.6;13.1;;;;;;;-1.37;73.68359;957.399;;;;
2020/03/26 02:33:24;;;;;;;14.2;12.7;;;;;;;-1.31;72.92188;957.4172;;;;
2020/03/26 02:36:04;;;;;;;13.9;12.5;;;;;;;-1.29;72.9248;957.3814;;;;
2020/03/26 02:38:14;;;;;;;14.4;12.4;;;;;;;-1.23;72.88965;957.3289;;;;
2020/03/26 02:40:39;;;;;;;13.3;11.8;;;;;;;-1.13;72.57129;957.4221;;;;
2020/03/26 02:43:04;;;;;;;13.5;12.1;;;;;;;-1.29;72.71387;957.4091;;;;
2020/03/26 02:45:30;;;;;;;14.2;12.7;;;;;;;-1.37;73.21387;957.4592;;;;
2020/03/26 02:47:55;;;;;;;14.2;12.6;;;;;;;-1.46;73.72559;957.4698;;;;
2020/03/26 02:50:20;;;;;;;14.4;12.9;;;;;;;-1.43;73.0918;957.3467;;;;
2020/03/26 02:52:45;;;;;;;13.7;12.3;;;;;;;-1.22;72.76953;957.4288;;;;
2020/03/26 02:57:13;;;;;;;13.9;12.3;;;;;;;-1.28;73.07227;957.4397;;;;
2020/03/26 02:59:38;;;;;;;14.4;12.4;;;;;;;-1.39;73.45605;957.4504;;;;
2020/03/26 03:02:03;;;;;;;14;12.5;;;;;;;-1.43;73.42676;957.4417;;;;
2020/03/26 03:04:29;;;;;;;14.3;12.8;;;;;;;-1.41;73.84473;957.4357;;;;
2020/03/26 03:06:54;;;;;;;14.5;13;;;;;;;-1.45;73.80371;957.3901;;;;
2020/03/26 03:09:19;;;;;;;14.2;12.8;;;;;;;-1.48;74.31348;957.4005;;;;
2020/03/26 03:11:44;;;;;;;14;12.5;;;;;;;-1.4;74.07031;957.4367;;;;
2020/03/26 03:14:09;;;;;;;13.3;12;;;;;;;-1.36;74.45703;957.4673;;;;
2020/03/26 03:16:34;;;;;;;14.3;12.8;;;;;;;-1.41;74.16797;957.4875;;;;
2020/03/26 03:18:59;;;;;;;14.2;12.7;;;;;;;-1.34;74.08008;957.448;;;;
2020/03/26 03:21:24;;;;;;;14.4;12.9;;;;;;;-1.47;74.20215;957.5109;;;;
2020/03/26 03:23:49;;;;;;;15.5;13;;;;;;;-1.38;74.04004;957.4839;;;;
2020/03/26 03:26:14;;;;;;;15.3;13.2;;;;;;;-1.47;75.31055;957.5016;;;;
2020/03/26 03:28:40;;;;;;;15.4;13.2;;;;;;;-1.4;74.85352;957.4531;;;;
2020/03/26 03:31:05;;;;;;;14.8;13.3;;;;;;;-1.36;74.79297;957.4203;;;;
2020/03/26 03:33:30;;;;;;;14.2;12.7;;;;;;;-1.46;74.89844;957.4536;;;;
2020/03/26 03:35:55;;;;;;;16.2;13.2;;;;;;;-1.52;75.01172;957.5076;;;;
2020/03/26 03:38:20;;;;;;;14.7;13.2;;;;;;;-1.52;75.52637;957.4661;;;;
2020/03/26 03:41:05;;;;;;;14.4;12.9;;;;;;;-1.49;75.49805;957.5494;;;;
2020/03/26 03:43:10;;;;;;;15.1;13.1;;;;;;;-1.62;76.42578;957.5031;;;;
2020/03/26 03:45:35;;;;;;;14.8;13.3;;;;;;;-1.54;75.94824;957.4408;;;;
2020/03/26 03:48:00;;;;;;;14.5;13;;;;;;;-1.54;75.60156;957.4865;;;;
2020/03/26 03:50:25;;;;;;;14.8;13.3;;;;;;;-1.58;75.97363;957.4872;;;;
2020/03/26 03:52:50;;;;;;;16.4;13.2;;;;;;;-1.46;75.50293;957.4152;;;;
2020/03/26 03:55:15;;;;;;;15;13.5;;;;;;;-1.47;76.01563;957.4464;;;;
2020/03/26 03:57:41;;;;;;;14.5;12.6;;;;;;;-1.58;76.06348;957.5644;;;;
2020/03/26 04:02:26;;;;;;;15.7;14.1;;;;;;;-1.63;76.44531;957.5262;;;;
2020/03/26 04:04:51;;;;;;;15.3;13.7;;;;;;;-1.63;77.11621;957.4905;;;;
2020/03/26 04:07:16;;;;;;;14.9;13.4;;;;;;;-1.66;76.38477;957.4639;;;;
2020/03/26 04:09:41;;;;;;;15.3;13.7;;;;;;;-1.62;76.87402;957.4807;;;;
2020/03/26 04:12:06;;;;;;;14.7;13.2;;;;;;;-1.54;76.50586;957.3958;;;;
2020/03/26 04:14:32;;;;;;;14.4;12.9;;;;;;;-1.59;76.64355;957.4232;;;;
2020/03/26 04:16:57;;;;;;;15.3;13.7;;;;;;;-1.61;76.8418;957.4413;;;;
2020/03/26 04:19:22;;;;;;;15.9;14;;;;;;;-1.69;77.07324;957.3981;;;;
2020/03/26 04:21:47;;;;;;;14.6;13.2;;;;;;;-1.61;76.78613;957.3831;;;;
2020/03/26 04:24:12;;;;;;;15.5;12.9;;;;;;;-1.56;76.32422;957.4689;;;;
2020/03/26 04:26:37;;;;;;;15.1;13.5;;;;;;;-1.61;76.75195;957.4767;;;;
2020/03/26 04:29:02;;;;;;;14.6;12.9;;;;;;;-1.66;77.06641;957.4941;;;;
2020/03/26 04:31:27;;;;;;;14.4;12.9;;;;;;;-1.62;77.2207;957.4903;;;;
2020/03/26 04:33:52;;;;;;;14.9;13.3;;;;;;;-1.57;77.10547;957.5355;;;;
2020/03/26 04:36:17;;;;;;;14.1;12.6;;;;;;;-1.63;76.99316;957.508;;;;
2020/03/26 04:38:42;;;;;;;14.3;12.8;;;;;;;-1.66;77.07813;957.4608;;;;
2020/03/26 04:43:33;;;;;;;15.1;13.3;;;;;;;-1.64;77.70898;957.3557;;;;
2020/03/26 04:45:58;;;;;;;15;13.4;;;;;;;-1.65;77.58398;957.3367;;;;
2020/03/26 04:48:23;;;;;;;14.7;12.7;;;;;;;-1.57;76.87012;957.3631;;;;
2020/03/26 04:50:48;;;;;;;14.2;12.8;;;;;;;-1.55;77.1875;957.3761;;;;
2020/03/26 04:53:14;;;;;;;13.4;12;;;;;;;-1.64;77.7207;957.4084;;;;
2020/03/26 04:55:39;;;;;;;14.1;12.6;;;;;;;-1.63;77.74219;957.4777;;;;
2020/03/26 04:58:04;;;;;;;14.4;12.9;;;;;;;-1.64;78.04297;957.505;;;;
2020/03/26 05:00:29;;;;;;;14.8;13.3;;;;;;;-1.71;77.90625;957.5342;;;;
2020/03/26 05:02:54;;;;;;;14.2;12.7;;;;;;;-1.74;78.33789;957.4796;;;;
2020/03/26 05:05:19;;;;;;;13.8;12.4;;;;;;;-1.7;78.14453;957.5405;;;;
2020/03/26 05:07:44;;;;;;;14;12.5;;;;;;;-1.61;77.88184;957.5372;;;;
2020/03/26 05:10:09;;;;;;;14;12.7;;;;;;;-1.64;77.65137;957.6599;;;;
2020/03/26 05:12:34;;;;;;;14.1;12.6;;;;;;;-1.65;77.83008;957.6386;;;;
2020/03/26 05:15:00;;;;;;;13.5;12.1;;;;;;;-1.63;77.91016;957.5828;;;;
2020/03/26 05:17:25;;;;;;;14.6;13.1;;;;;;;-1.7;78.22168;957.6625;;;;
2020/03/26 05:19:50;;;;;;;14.3;12.8;;;;;;;-1.69;79.30762;957.6925;;;;
2020/03/26 05:22:15;;;;;;;14.5;13;;;;;;;-1.62;78.58301;957.7287;;;;
2020/03/26 05:24:40;;;;;;;14.2;12.6;;;;;;;-1.41;78.28809;957.6843;;;;
2020/03/26 05:27:05;;;;;;;13;11.7;;;;;;;-1.41;77.38086;957.7242;;;;
2020/03/26 05:29:30;;;;;;;13.6;12.2;;;;;;;-1.47;77.89551;957.7883;;;;
2020/03/26 05:31:55;;;;;;;13.7;12.3;;;;;;;-1.48;77.56934;957.7194;;;;
2020/03/26 05:34:20;;;;;;;13.7;12.4;;;;;;;-1.41;78.16504;957.7881;;;;
2020/03/26 05:36:45;;;;;;;13.4;12;;;;;;;-1.34;78.1543;957.7803;;;;
2020/03/26 05:39:10;;;;;;;14;12.5;;;;;;;-1.47;78.1748;957.7598;;;;
2020/03/26 05:41:36;;;;;;;13.4;12.1;;;;;;;-1.44;78.56055;957.7509;;;;
2020/03/26 05:44:01;;;;;;;13.6;12.3;;;;;;;-1.36;78.30859;957.6923;;;;
2020/03/26 05:46:26;;;;;;;14.3;12.1;;;;;;;-1.33;77.45215;957.7188;;;;
2020/03/26 05:48:51;;;;;;;13.3;11.9;;;;;;;-1.34;78.16699;957.7342;;;;
2020/03/26 05:51:16;;;;;;;13.3;11.7;;;;;;;-1.19;78.1377;957.8094;;;;
2020/03/26 05:53:41;;;;;;;13;11.7;;;;;;;-1.15;78.24609;957.7615;;;;
2020/03/26 05:56:06;;;;;;;12.8;11.5;;;;;;;-1.23;77.92871;957.7903;;;;
2020/03/26 05:58:31;;;;;;;13;11.7;;;;;;;-1.11;77.64844;957.8356;;;;
2020/03/26 06:01:37;;;;;;;13.2;11.5;;;;;;;-1.1;77.60547;957.783;;;;
2020/03/26 06:03:29;;;;;;;13.2;11.8;;;;;;;-1.18;78.30859;957.7856;;;;
2020/03/26 06:05:46;;;;;;;14.1;12.7;;;;;;;-1.14;77.75586;957.897;;;;
2020/03/26 06:08:12;;;;;;;13.4;12.1;;;;;;;-1.05;78.05176;957.8233;;;;
2020/03/26 06:10:37;;;;;;;13.3;11.9;;;;;;;-1;77.87012;957.9217;;;;
2020/03/26 06:13:02;;;;;;;13.2;11.8;;;;;;;-0.89;77.17285;957.8793;;;;
2020/03/26 06:15:27;;;;;;;13.6;12.2;;;;;;;-1.05;78.36523;957.8983;;;;
2020/03/26 06:17:52;;;;;;;13.3;12;;;;;;;-0.85;77.77637;957.9387;;;;
2020/03/26 06:20:17;;;;;;;15;12.7;;;;;;;-0.85;77.60645;958;;;;
2020/03/26 06:22:42;;;;;;;13.7;12.2;;;;;;;-0.85;78.07715;957.9481;;;;
2020/03/26 06:25:07;;;;;;;13.6;12.1;;;;;;;-0.78;77.61035;957.9171;;;;
2020/03/26 06:27:32;;;;;;;13.3;12;;;;;;;-0.77;77.57715;957.9048;;;;
2020/03/26 06:29:58;;;;;;;13;11.7;;;;;;;-0.69;77.77051;957.8886;;;;
2020/03/26 06:32:23;;;;;;;13.5;12.1;;;;;;;-0.65;77.25098;957.9319;;;;
2020/03/26 06:34:48;;;;;;;14.1;12.6;;;;;;;-0.6;77.83203;957.9227;;;;
2020/03/26 06:37:13;;;;;;;14;11.9;;;;;;;-0.54;77.01367;957.9695;;;;
2020/03/26 06:39:38;;;;;;;13.4;12.1;;;;;;;-0.48;76.82324;958.0278;;;;
2020/03/26 06:42:03;;;;;;;13.9;11.9;;;;;;;-0.41;77.0166;957.9772;;;;
2020/03/26 06:44:28;;;;;;;13.1;11.7;;;;;;;-0.33;76.81641;958.0502;;;;
2020/03/26 06:46:53;;;;;;;13.6;12.2;;;;;;;-0.28;76.83691;958.0334;;;;
2020/03/26 06:49:18;;;;;;;14.5;12.3;;;;;;;-0.21;76.60352;958.0123;;;;
2020/03/26 06:51:44;;;;;;;13.3;11.7;;;;;;;-0.11;76.01465;958.0969;;;;
2020/03/26 06:54:09;;;;;;;13.4;12.1;;;;;;;-0.12;76.04688;958.0508;;;;
2020/03/26 06:56:34;;;;;;;13.8;12.1;;;;;;;-0.11;76.83496;958.1119;;;;
2020/03/26 06:58:59;;;;;;;14;11.8;;;;;;;0.1;76.34473;958.1318;;;;
2020/03/26 07:01:24;;;;;;;14;12.6;;;;;;;0.09;76.67969;958.1438;;;;
2020/03/26 07:03:50;;;;;;;14.2;12.8;;;;;;;0.06;76.89941;958.2391;;;;
2020/03/26 07:06:15;;;;;;;14.9;13.3;;;;;;;0.17;75.96387;958.2148;;;;
2020/03/26 07:08:40;;;;;;;14.2;12.8;;;;;;;0.22;76.26563;958.1683;;;;
2020/03/26 07:11:05;;;;;;;16.2;13.9;;;;;;;0.31;76.10059;958.2572;;;;
2020/03/26 07:13:30;;;;;;;15.6;14;;;;;;;0.3;76.35938;958.2628;;;;
2020/03/26 07:15:55;;;;;;;15.9;14.3;;;;;;;0.47;75.5127;958.3342;;;;
2020/03/26 07:18:20;;;;;;;16.7;15;;;;;;;0.51;76.27246;958.3158;;;;
2020/03/26 07:21:03;;;;;;;16.8;15;;;;;;;0.65;75.4082;958.2766;;;;
2020/03/26 07:23:11;;;;;;;16.1;14.5;;;;;;;0.54;75.1084;958.321;;;;
2020/03/26 07:25:36;;;;;;;15.8;14.2;;;;;;;0.66;75.50195;958.3424;;;;
2020/03/26 07:28:01;;;;;;;15.8;14.2;;;;;;;0.84;75.0166;958.3908;;;;
2020/03/26 07:30:26;;;;;;;16.3;14.6;;;;;;;0.91;74.70215;958.3494;;;;
2020/03/26 07:32:51;;;;;;;15.2;13.7;;;;;;;0.86;74.70605;958.3395;;;;
2020/03/26 07:35:16;;;;;;;16.3;13.8;;;;;;;1.02;74.23926;958.3667;;;;
2020/03/26 07:37:41;;;;;;;15.8;14.2;;;;;;;1.03;74.43066;958.3903;;;;
2020/03/26 07:40:06;;;;;;;15.1;13.5;;;;;;;1.15;73.81055;958.3917;;;;
2020/03/26 07:42:31;;;;;;;14.3;12.9;;;;;;;1.18;74.11914;958.424;;;;
2020/03/26 07:44:56;;;;;;;14.8;13.2;;;;;;;1.22;73.93457;958.4683;;;;
2020/03/26 07:47:21;;;;;;;14.7;13.1;;;;;;;1.13;73.90723;958.4765;;;;
2020/03/26 07:49:46;;;;;;;14.4;12.4;;;;;;;1.14;73.50488;958.4717;;;;
2020/03/26 07:52:11;;;;;;;15.8;13.2;;;;;;;1.07;73.95313;958.5204;;;;
2020/03/26 07:54:37;;;;;;;14.5;13;;;;;;;1.1;74.25195;958.4235;;;;
2020/03/26 07:57:02;;;;;;;14.8;13.2;;;;;;;1.14;74.10059;958.4869;;;;
2020/03/26 07:59:27;;;;;;;14.8;12.9;;;;;;;1.27;73.89844;958.4816;;;;
2020/03/26 08:01:52;;;;;;;14.2;12.5;;;;;;;1.25;73.7041;958.5214;;;;
2020/03/26 08:04:17;;;;;;;14;12.5;;;;;;;1.31;73.55762;958.4794;;;;
2020/03/26 08:06:42;;;;;;;13.7;12.2;;;;;;;1.31;73.30957;958.5179;;;;
2020/03/26 08:09:07;;;;;;;16.5;12.4;;;;;;;1.3;73.46582;958.4944;;;;
2020/03/26 08:11:32;;;;;;;15.1;12.2;;;;;;;1.41;73.38281;958.4471;;;;
2020/03/26 08:13:58;;;;;;;14.5;12.9;;;;;;;1.58;72.46484;958.4427;;;;
2020/03/26 08:16:23;;;;;;;13.4;12;;;;;;;1.63;72.1582;958.4872;;;;
2020/03/26 08:18:48;;;;;;;13;11.6;;;;;;;1.66;71.62305;958.4238;;;;
2020/03/26 08:21:13;;;;;;;13.6;12.2;;;;;;;1.71;71.67676;958.4402;;;;
2020/03/26 08:23:38;;;;;;;13;11.7;;;;;;;1.75;71.6377;958.532;;;;
2020/03/26 08:26:03;;;;;;;12.7;11.5;;;;;;;1.91;71.25977;958.584;;;;
2020/03/26 08:28:28;;;;;;;13.4;11.4;;;;;;;1.96;70.62402;958.5707;;;;
2020/03/26 08:30:53;;;;;;;12.8;11.4;;;;;;;2.01;70.80078;958.6108;;;;
2020/03/26 08:33:18;;;;;;;13.3;11.7;;;;;;;2.12;70.2334;958.6443;;;;
2020/03/26 08:35:43;;;;;;;13.3;11.9;;;;;;;2.21;70.22363;958.6895;;;;
2020/03/26 08:38:09;;;;;;;16.3;12;;;;;;;2;70.58594;958.6906;;;;
2020/03/26 08:40:34;;;;;;;18.2;11.6;;;;;;;2.07;71.08203;958.7198;;;;
2020/03/26 08:42:59;;;;;;;20.3;12.7;;;;;;;2.34;69.58203;958.7366;;;;
2020/03/26 08:45:25;;;;;;;18;12.8;;;;;;;2.35;70.58691;958.7906;;;;
2020/03/26 08:47:50;;;;;;;21;12.7;;;;;;;2.5;69.94727;958.8391;;;;
2020/03/26 08:50:15;;;;;;;25.4;13;;;;;;;2.55;69.89746;958.8881;;;;
2020/03/26 08:52:41;;;;;;;19.5;12.1;;;;;;;2.32;70.1416;958.9146;;;;
2020/03/26 08:57:32;;;;;;;16.1;12.3;;;;;;;2.33;70.36914;958.8708;;;;
2020/03/26 08:59:57;;;;;;;13.3;11.9;;;;;;;2.32;70.09766;958.9999;;;;
2020/03/26 09:02:22;;;;;;;13;11.6;;;;;;;2.39;69.56641;958.9542;;;;
2020/03/26 09:04:47;;;;;;;13.6;11.5;;;;;;;2.48;69.875;958.9626;;;;
2020/03/26 09:07:12;;;;;;;12.7;11.4;;;;;;;2.42;70.13672;958.9745;;;;
2020/03/26 09:09:37;;;;;;;16.3;11.8;;;;;;;2.36;70.40723;958.959;;;;
2020/03/26 09:12:02;;;;;;;12.4;11.1;;;;;;;2.39;70.01855;958.9388;;;;
2020/03/26 09:14:27;;;;;;;13.1;11.7;;;;;;;2.38;70.26465;959.081;;;;
2020/03/26 09:16:52;;;;;;;13.7;11.6;;;;;;;2.43;69.60742;959.0168;;;;
2020/03/26 09:19:17;;;;;;;13;11.1;;;;;;;2.71;68.80762;959.0189;;;;
2020/03/26 09:22:50;;;;;;;14.5;11.5;;;;;;;2.69;69.41309;958.9925;;;;
2020/03/26 09:26:39;;;;;;;12.8;11;;;;;;;3.03;67.41016;958.9986;;;;
2020/03/26 09:28:57;;;;;;;12.6;10.9;;;;;;;3.17;68.3125;959.0023;;;;
2020/03/26 09:31:23;;;;;;;12.6;10.9;;;;;;;3.3;67.44043;958.9893;;;;
2020/03/26 09:33:48;;;;;;;13;10.3;;;;;;;3.32;66.48242;958.9972;;;;
2020/03/26 09:36:13;;;;;;;12.4;11;;;;;;;3.17;67.3623;958.9911;;;;
2020/03/26 09:38:38;;;;;;;12.1;10.8;;;;;;;3.43;66.36328;958.8791;;;;
2020/03/26 09:41:03;;;;;;;11.5;10.2;;;;;;;3.38;66.09668;958.9216;;;;
2020/03/26 09:43:28;;;;;;;12.5;10.5;;;;;;;3.37;66.70508;959.0003;;;;
2020/03/26 09:45:53;;;;;;;12.7;10.4;;;;;;;3.64;66.65625;958.9166;;;;
2020/03/26 09:48:18;;;;;;;18.7;10.2;;;;;;;3.75;64.72754;958.9709;;;;
2020/03/26 09:50:43;;;;;;;12.9;9.8;;;;;;;3.58;65.53809;958.9326;;;;
2020/03/26 09:53:08;;;;;;;13.4;9.3;;;;;;;3.62;65.39844;958.8968;;;;
2020/03/26 09:55:34;;;;;;;11.7;9.5;;;;;;;3.73;65.2334;958.8836;;;;
2020/03/26 09:57:59;;;;;;;13.7;10;;;;;;;3.62;65.23828;958.9044;;;;
2020/03/26 10:00:28;;;;;;;14;9.8;;;;;;;4.01;65.12891;958.8451;;;;
2020/03/26 10:02:53;;;;;;;14.7;9.7;;;;;;;3.91;64.66016;958.7978;;;;
2020/03/26 10:05:22;;;;;;;12.6;9.3;;;;;;;3.95;64.23535;958.7974;;;;
2020/03/26 10:07:46;;;;;;;12;9.4;;;;;;;4.13;63.7627;958.851;;;;
2020/03/26 10:10:12;;;;;;;11.2;8.9;;;;;;;4.22;62.58691;958.8186;;;;
2020/03/26 10:12:36;;;;;;;10.9;8.8;;;;;;;4.19;63.34277;958.8625;;;;
2020/03/26 10:15:02;;;;;;;9.9;8.7;;;;;;;4.23;62.54199;958.8471;;;;
2020/03/26 10:17:27;;;;;;;9.6;8.3;;;;;;;4.36;62.31152;958.8337;;;;
2020/03/26 10:19:52;;;;;;;9.5;8.5;;;;;;;4.43;62.86719;958.8578;;;;
2020/03/26 10:22:17;;;;;;;11.6;8.8;;;;;;;4.7;62.06641;958.7994;;;;
2020/03/26 10:24:43;;;;;;;11.7;9.4;;;;;;;4.81;61.32129;958.7972;;;;
2020/03/26 10:27:08;;;;;;;10.2;8.2;;;;;;;4.86;60.85059;958.7636;;;;
2020/03/26 10:29:33;;;;;;;11.9;9.1;;;;;;;4.99;60.5293;958.7427;;;;
2020/03/26 10:31:58;;;;;;;11.8;8.6;;;;;;;4.8;60.89941;958.7217;;;;
2020/03/26 10:34:23;;;;;;;9.7;7.8;;;;;;;4.78;60.71582;958.7612;;;;
2020/03/26 10:36:48;;;;;;;9.5;7.6;;;;;;;5;60.16699;958.8078;;;;
2020/03/26 10:39:13;;;;;;;9.8;8;;;;;;;5.16;59.17969;958.8586;;;;
2020/03/26 10:41:38;;;;;;;10.2;7.7;;;;;;;5.05;60.50391;958.7773;;;;
2020/03/26 10:44:04;;;;;;;10.1;8;;;;;;;5.06;58.85742;958.7214;;;;
2020/03/26 10:46:29;;;;;;;9.4;7.6;;;;;;;4.99;59.57617;958.7098;;;;
2020/03/26 10:48:54;;;;;;;10.6;7.2;;;;;;;5.24;59.15527;958.671;;;;
2020/03/26 10:51:19;;;;;;;10.1;7.1;;;;;;;5.19;59.47852;958.6931;;;;
2020/03/26 10:53:44;;;;;;;9.2;6.9;;;;;;;5.18;58.61328;958.6453;;;;
2020/03/26 10:56:09;;;;;;;9.5;6.6;;;;;;;5.16;58.43945;958.7486;;;;
2020/03/26 10:58:35;;;;;;;8;6.8;;;;;;;5.37;57.54785;958.7122;;;;
2020/03/26 11:01:00;;;;;;;8.9;6.6;;;;;;;5.25;57.70215;958.7634;;;;
2020/03/26 11:03:25;;;;;;;10.2;6.3;;;;;;;5.21;57.5498;958.678;;;;
2020/03/26 11:05:51;;;;;;;11.6;6.6;;;;;;;5.44;57.61426;958.7922;;;;
2020/03/26 11:08:16;;;;;;;7.8;6.3;;;;;;;5.77;57.61328;958.7869;;;;
2020/03/26 11:10:41;;;;;;;8.5;6.5;;;;;;;5.98;57.25293;958.7852;;;;
2020/03/26 11:13:06;;;;;;;8.8;5.8;;;;;;;5.74;56.20898;958.8363;;;;
2020/03/26 11:15:32;;;;;;;7.3;5.9;;;;;;;5.79;56.02246;958.8537;;;;
2020/03/26 11:17:57;;;;;;;8.9;5.8;;;;;;;5.52;56.01953;958.8961;;;;
2020/03/26 11:20:22;;;;;;;10.1;6.2;;;;;;;5.78;56.34961;958.9656;;;;
2020/03/26 11:22:48;;;;;;;7.7;6.1;;;;;;;5.7;56.55664;959;;;;
2020/03/26 11:25:13;;;;;;;7.6;5.7;;;;;;;5.65;55.69629;958.9967;;;;
2020/03/26 11:27:38;;;;;;;7.2;5.6;;;;;;;5.76;55.55078;958.9576;;;;
2020/03/26 11:30:03;;;;;;;7.2;5.5;;;;;;;5.74;55.03613;958.9944;;;;
2020/03/26 11:32:28;;;;;;;10.8;5.9;;;;;;;5.79;55.81738;959.0614;;;;
2020/03/26 11:34:53;;;;;;;8.1;6.3;;;;;;;5.88;55.4082;959.0114;;;;
2020/03/26 11:37:19;;;;;;;8.7;6.3;;;;;;;6.05;55.29297;959.0856;;;;
2020/03/26 11:39:44;;;;;;;12.4;6.9;;;;;;;5.82;55.65039;959.039;;;;
2020/03/26 11:42:09;;;;;;;10.1;6.1;;;;;;;6.22;54.7002;958.9959;;;;
2020/03/26 11:44:34;;;;;;;9.5;6;;;;;;;6.37;55.24219;959.0374;;;;
2020/03/26 11:46:59;;;;;;;15.8;6.5;;;;;;;6.31;54.59766;958.954;;;;
2020/03/26 11:49:25;;;;;;;12.6;6;;;;;;;6.27;56.12012;959.0084;;;;
2020/03/26 11:51:50;;;;;;;11.7;6.4;;;;;;;6.37;55.12891;958.9727;;;;
2020/03/26 11:54:16;;;;;;;11.5;6.2;;;;;;;6.46;54.76465;958.951;;;;
2020/03/26 11:56:41;;;;;;;12;6.1;;;;;;;6.76;53.96973;958.9302;;;;
2020/03/26 11:59:15;;;;;;;10.5;6.4;;;;;;;6.51;54.57715;958.9314;;;;
2020/03/26 12:01:31;;;;;;;8;5.7;;;;;;;6.96;53.57227;958.9095;;;;
2020/03/26 12:03:56;;;;;;;8.7;6.1;;;;;;;6.88;54.5332;958.8295;;;;
2020/03/26 12:06:21;;;;;;;11.4;6.5;;;;;;;6.88;53.12988;958.8862;;;;
2020/03/26 12:08:46;;;;;;;8.4;5.8;;;;;;;6.44;53.52051;958.7786;;;;
2020/03/26 12:11:11;;;;;;;10.4;6.2;;;;;;;6.68;53.46973;958.8603;;;;
2020/03/26 12:13:36;;;;;;;10.2;6.5;;;;;;;6.9;53.89648;958.7441;;;;
2020/03/26 12:16:02;;;;;;;10.5;6.5;;;;;;;6.75;53.2959;958.6898;;;;
2020/03/26 12:18:27;;;;;;;7.8;6.4;;;;;;;7.1;52.88281;958.6355;;;;
2020/03/26 12:20:52;;;;;;;10.9;6.4;;;;;;;6.84;52.94043;958.6588;;;;
2020/03/26 12:23:17;;;;;;;7.9;6.1;;;;;;;6.86;53.10352;958.6677;;;;
2020/03/26 12:25:43;;;;;;;11.2;6.7;;;;;;;6.86;52.94434;958.5356;;;;
2020/03/26 12:28:08;;;;;;;9.9;6.6;;;;;;;7;54.25098;958.5575;;;;
2020/03/26 12:30:33;;;;;;;13.5;6.5;;;;;;;7.12;52.69043;958.6195;;;;
2020/03/26 12:32:58;;;;;;;8.9;6;;;;;;;7.12;52.45117;958.4846;;;;
2020/03/26 12:35:23;;;;;;;10;5.8;;;;;;;7.14;52.71582;958.4379;;;;
2020/03/26 12:37:49;;;;;;;12.3;6.4;;;;;;;7.29;52.41602;958.4231;;;;
2020/03/26 12:40:14;;;;;;;9;5.9;;;;;;;7.33;51.69922;958.3697;;;;
2020/03/26 12:42:39;;;;;;;8.3;6.3;;;;;;;7.23;51.82422;958.435;;;;
2020/03/26 12:45:04;;;;;;;13.6;6.6;;;;;;;7.39;52.14258;958.4108;;;;
2020/03/26 12:47:29;;;;;;;13.4;6.6;;;;;;;7.6;50.94336;958.4459;;;;
2020/03/26 12:49:54;;;;;;;12.4;6.5;;;;;;;7.25;50.82324;958.4543;;;;
2020/03/26 12:52:20;;;;;;;12;6;;;;;;;7.41;51.28711;958.3058;;;;
2020/03/26 12:54:45;;;;;;;10.5;5.8;;;;;;;7.44;50.47949;958.2394;;;;
2020/03/26 12:57:11;;;;;;;9;5.9;;;;;;;7.35;50.81152;958.163;;;;
2020/03/26 12:59:36;;;;;;;9.9;5.8;;;;;;;7.31;50.54395;958.1676;;;;
2020/03/26 13:02:01;;;;;;;9.4;5.8;;;;;;;7.5;50.22266;958.0853;;;;
2020/03/26 13:04:26;;;;;;;10;6.2;;;;;;;7.66;50.28906;958.0901;;;;
2020/03/26 13:06:51;;;;;;;7.3;5.8;;;;;;;7.85;50.99707;958.087;;;;
2020/03/26 13:09:17;;;;;;;7.1;5.7;;;;;;;7.65;49.88672;958.1925;;;;
2020/03/26 13:11:42;;;;;;;9.1;5.8;;;;;;;7.39;49.91309;958.2;;;;
2020/03/26 13:14:07;;;;;;;9.4;6.1;;;;;;;7.47;50.68848;958.1802;;;;
2020/03/26 13:16:32;;;;;;;8.6;6.4;;;;;;;7.49;50.24512;958.1078;;;;
2020/03/26 13:18:57;;;;;;;8.6;6.5;;;;;;;7.81;50.16797;958.0658;;;;
2020/03/26 13:21:22;;;;;;;10.1;6.1;;;;;;;7.89;50.09766;958.1309;;;;
2020/03/26 13:23:47;;;;;;;9.5;6.4;;;;;;;7.88;49.68457;958.0886;;;;
2020/03/26 13:26:13;;;;;;;7.9;5.3;;;;;;;7.74;49.23438;958.075;;;;
2020/03/26 13:28:38;;;;;;;8.1;6.1;;;;;;;7.7;49.91504;958.0829;;;;
2020/03/26 13:31:03;;;;;;;7.8;5.6;;;;;;;7.96;49.20117;958.168;;;;
2020/03/26 13:33:28;;;;;;;9.3;5.7;;;;;;;7.85;49.94434;958.1138;;;;
2020/03/26 13:35:53;;;;;;;8.2;5.9;;;;;;;7.64;50.25098;958.0367;;;;
2020/03/26 13:38:19;;;;;;;10.8;6.2;;;;;;;8.02;50.64941;958.0859;;;;
2020/03/26 13:40:44;;;;;;;10.7;6.5;;;;;;;8.13;49.77148;958.1211;;;;
2020/03/26 13:43:09;;;;;;;9.4;6.1;;;;;;;7.91;48.97852;958.0577;;;;
2020/03/26 13:45:34;;;;;;;10.3;6.2;;;;;;;8.09;50.00586;957.9797;;;;
2020/03/26 13:47:59;;;;;;;8.7;5.8;;;;;;;8.35;49.89941;957.9532;;;;
2020/03/26 13:50:24;;;;;;;7;5.7;;;;;;;8.18;48.54004;957.9682;;;;
2020/03/26 13:52:50;;;;;;;12.3;6;;;;;;;8.15;50.12793;957.9261;;;;
2020/03/26 13:55:15;;;;;;;9.7;5.9;;;;;;;8.33;48.90137;957.9835;;;;
2020/03/26 13:57:40;;;;;;;10.6;6.5;;;;;;;8.34;49.70313;957.9583;;;;
2020/03/26 14:00:05;;;;;;;11.3;6.3;;;;;;;8.12;49.95313;957.9327;;;;
2020/03/26 14:02:31;;;;;;;9.3;6.4;;;;;;;8.47;49.40918;957.9653;;;;
2020/03/26 14:04:56;;;;;;;7.1;5.8;;;;;;;8.33;49.40527;957.9964;;;;
2020/03/26 14:07:21;;;;;;;9.5;6;;;;;;;8.29;50.28223;957.9565;;;;
2020/03/26 14:09:47;;;;;;;8.1;5.9;;;;;;;8.35;48.94824;958.1033;;;;
2020/03/26 14:12:18;;;;;;;6.4;5.6;;;;;;;8.47;47.65723;957.9905;;;;
2020/03/26 14:14:44;;;;;;;8.1;5.5;;;;;;;8.36;47.24316;957.9435;;;;